Hunt City, Illinois
Current Conditions -  °F | °C
As of 7:15 AM on Friday 28 Nov 2014 (Local Time) from KRSV Reporting Station
Scattered Clouds Scattered Clouds  
Wind Chill: 16°   Ceiling: Unl
Heat Index: 24°   Visibility: 10mi
Dew Point: 21°   Wind: 7mph
Humidity: 87%   Direction: 160°SSE
Pressure: 30.39"   Gusts: NA
Location:  38.9751°N, 88.0102°W
Report Text: KRSV 281315Z AUTO 16006KT 10SM SCT075 M04/M06 A3039 RMK AO2 T10421061
Loading
Personal Weather Stations






























Interactive Weather Map New forecast layout! Learn more

10-Day Weather Forecast

Advertisements
Track Severe Weather on mobile